Time;durP1;ratioP1;P1;durP2;ratioP2;P2;SDS_P1;SDS_P2;PMS_P1;PMS_P2;Temp;Humidity;BMP_temperature;BMP_pressure;BME280_temperature;BME280_humidity;BME280_pressure;Samples;Min_cycle;Max_cycle;Signal;HPM_P1;HPM_P2
2021/12/20 00:01:56;;;;;;;;;22.25;18.50;;;;;;;;4995637;28;45398;-69
2021/12/20 00:04:22;;;;;;;;;20.75;18.00;;;;;;;;4995229;28;45502;-68
2021/12/20 00:06:47;;;;;;;;;27.67;15.67;;;;;;;;4982377;28;45383;-68
2021/12/20 00:09:12;;;;;;;;;41.67;32.00;;;;;;;;4995540;28;46965;-68
2021/12/20 00:11:37;;;;;;;;;23.67;16.33;;;;;;;;4995039;28;45430;-68
2021/12/20 00:14:03;;;;;;;;;20.50;18.00;;;;;;;;4995375;28;45426;-69
2021/12/20 00:16:28;;;;;;;;;29.00;18.67;;;;;;;;4995452;28;45646;-68
2021/12/20 00:18:53;;;;;;;;;22.67;17.33;;;;;;;;4994955;28;45309;-68
2021/12/20 00:21:18;;;;;;;;;28.25;19.25;;;;;;;;4995122;28;45353;-68
2021/12/20 00:23:44;;;;;;;;;29.00;22.33;;;;;;;;4995180;28;45300;-68
2021/12/20 00:26:09;;;;;;;;;21.00;16.00;;;;;;;;4995379;28;47596;-68
2021/12/20 00:28:35;;;;;;;;;17.33;16.33;;;;;;;;4994992;28;45424;-68
2021/12/20 00:31:00;;;;;;;;;20.75;20.25;;;;;;;;4994854;28;45420;-68
2021/12/20 00:33:28;;;;;;;;;33.33;24.00;;;;;;;;4995815;28;45436;-69
2021/12/20 00:35:53;;;;;;;;;30.00;22.00;;;;;;;;4991074;28;45542;-68
2021/12/20 00:41:02;;;;;;;;;27.50;20.50;;;;;;;;4994696;28;45865;-69
2021/12/20 00:43:27;;;;;;;;;22.00;19.00;;;;;;;;4995186;28;45459;-69
2021/12/20 00:45:53;;;;;;;;;25.67;20.33;;;;;;;;4994934;28;45337;-68
2021/12/20 00:48:18;;;;;;;;;29.67;23.67;;;;;;;;4995109;28;46083;-69
2021/12/20 00:50:44;;;;;;;;;25.33;23.00;;;;;;;;4994565;28;45421;-69
2021/12/20 00:53:10;;;;;;;;;20.75;18.25;;;;;;;;4994770;28;45292;-68
2021/12/20 00:55:35;;;;;;;;;19.50;18.00;;;;;;;;4994692;28;45579;-68
2021/12/20 00:58:01;;;;;;;;;28.50;20.50;;;;;;;;4994542;28;45793;-68
2021/12/20 01:00:33;;;;;;;;;28.00;18.75;;;;;;;;4995253;28;45369;-69
2021/12/20 01:02:59;;;;;;;;;16.75;13.00;;;;;;;;4994324;28;45541;-69
2021/12/20 01:05:25;;;;;;;;;19.25;14.25;;;;;;;;4993239;28;45438;-68
2021/12/20 01:07:52;;;;;;;;;22.50;18.00;;;;;;;;4994142;28;45527;-69
2021/12/20 01:10:17;;;;;;;;;18.25;14.50;;;;;;;;4994823;28;45955;-68
2021/12/20 01:12:50;;;;;;;;;23.00;18.75;;;;;;;;4994733;28;45306;-68
2021/12/20 01:15:17;;;;;;;;;31.00;16.25;;;;;;;;4993174;28;45719;-68
2021/12/20 01:17:43;;;;;;;;;19.75;16.25;;;;;;;;4994348;28;46142;-68
2021/12/20 01:20:09;;;;;;;;;25.67;18.67;;;;;;;;4993860;28;45569;-68
2021/12/20 01:22:34;;;;;;;;;18.75;16.75;;;;;;;;4994377;28;45378;-68
2021/12/20 01:24:59;;;;;;;;;21.33;17.33;;;;;;;;4994368;28;45619;-69
2021/12/20 01:27:24;;;;;;;;;20.33;16.00;;;;;;;;4994663;28;45375;-69
2021/12/20 01:29:50;;;;;;;;;17.67;16.67;;;;;;;;4996010;28;45403;-68
2021/12/20 01:32:15;;;;;;;;;19.33;15.00;;;;;;;;4997822;28;45429;-69
2021/12/20 01:34:41;;;;;;;;;19.00;14.50;;;;;;;;4996876;28;45343;-69
2021/12/20 01:37:06;;;;;;;;;25.33;17.00;;;;;;;;4997349;28;46328;-68
2021/12/20 01:39:31;;;;;;;;;25.00;15.67;;;;;;;;4998193;28;45454;-68
2021/12/20 01:41:58;;;;;;;;;23.33;15.00;;;;;;;;4997393;28;45430;-69
2021/12/20 01:44:23;;;;;;;;;20.00;12.75;;;;;;;;4998108;28;45510;-68
2021/12/20 01:46:48;;;;;;;;;23.75;17.25;;;;;;;;4995938;28;47360;-68
2021/12/20 01:49:16;;;;;;;;;20.50;17.75;;;;;;;;4997054;28;45292;-68
2021/12/20 01:54:13;;;;;;;;;33.50;20.00;;;;;;;;4997951;28;45277;-69
2021/12/20 01:56:41;;;;;;;;;26.67;21.33;;;;;;;;4997155;28;46357;-69
2021/12/20 01:59:07;;;;;;;;;25.75;19.75;;;;;;;;4997215;28;45379;-68
2021/12/20 02:01:33;;;;;;;;;24.00;19.75;;;;;;;;4997334;28;45632;-69
2021/12/20 02:04:01;;;;;;;;;27.50;22.25;;;;;;;;4997206;28;45572;-69
2021/12/20 02:06:36;;;;;;;;;23.25;23.00;;;;;;;;4994662;28;45552;-69
2021/12/20 02:09:19;;;;;;;;;28.75;23.00;;;;;;;;4997420;28;45817;-68
2021/12/20 02:11:46;;;;;;;;;27.50;21.25;;;;;;;;4997710;28;45453;-69
2021/12/20 02:14:12;;;;;;;;;30.75;19.50;;;;;;;;4997939;28;45484;-69
2021/12/20 02:16:38;;;;;;;;;27.75;22.25;;;;;;;;4996746;28;46480;-68
2021/12/20 02:19:05;;;;;;;;;28.50;24.00;;;;;;;;4981394;28;45386;-69
2021/12/20 02:21:30;;;;;;;;;29.00;21.50;;;;;;;;4997820;28;45301;-69
2021/12/20 02:23:56;;;;;;;;;22.75;19.00;;;;;;;;4996883;28;45620;-69
2021/12/20 02:26:24;;;;;;;;;33.67;23.67;;;;;;;;4995309;28;48328;-68
2021/12/20 02:28:52;;;;;;;;;26.00;23.50;;;;;;;;4996504;28;45328;-69
2021/12/20 02:36:59;;;;;;;;;31.00;22.75;;;;;;;;4993801;28;45350;-68
2021/12/20 02:39:24;;;;;;;;;25.00;20.25;;;;;;;;4996047;28;45935;-68
2021/12/20 02:41:49;;;;;;;;;28.33;24.00;;;;;;;;4996611;28;45691;-69
2021/12/20 02:44:19;;;;;;;;;30.67;26.67;;;;;;;;4995969;28;45292;-68
2021/12/20 02:46:51;;;;;;;;;35.50;28.00;;;;;;;;4995668;28;45589;-68
2021/12/20 02:49:19;;;;;;;;;35.00;25.50;;;;;;;;4996590;28;46101;-69
2021/12/20 02:51:45;;;;;;;;;29.00;23.00;;;;;;;;4996808;28;48084;-68
2021/12/20 02:54:11;;;;;;;;;32.75;25.50;;;;;;;;4997111;28;45491;-68
2021/12/20 02:56:37;;;;;;;;;32.25;27.00;;;;;;;;4996322;28;46629;-68
2021/12/20 02:59:02;;;;;;;;;30.00;27.00;;;;;;;;4996447;28;45306;-69
2021/12/20 03:01:28;;;;;;;;;38.50;28.75;;;;;;;;4996140;28;45336;-69
2021/12/20 03:03:54;;;;;;;;;35.67;27.67;;;;;;;;4996643;28;45262;-68
2021/12/20 03:06:19;;;;;;;;;40.00;29.00;;;;;;;;4996348;28;45345;-68
2021/12/20 03:08:47;;;;;;;;;36.67;32.67;;;;;;;;4996051;28;45391;-68
2021/12/20 03:11:12;;;;;;;;;44.00;34.50;;;;;;;;4995062;28;45499;-69
2021/12/20 03:13:38;;;;;;;;;45.00;32.00;;;;;;;;4996153;28;45440;-68
2021/12/20 03:16:03;;;;;;;;;37.00;28.50;;;;;;;;4995861;28;45663;-68
2021/12/20 03:18:28;;;;;;;;;35.75;29.00;;;;;;;;4996906;28;45814;-68
2021/12/20 03:20:53;;;;;;;;;37.00;33.33;;;;;;;;4996384;28;45575;-69
2021/12/20 03:23:19;;;;;;;;;44.67;35.33;;;;;;;;4996107;28;45394;-68
2021/12/20 03:25:44;;;;;;;;;43.33;31.00;;;;;;;;4995881;28;45595;-68
2021/12/20 03:28:09;;;;;;;;;36.33;29.33;;;;;;;;4995914;28;45364;-68
2021/12/20 03:30:34;;;;;;;;;38.00;26.50;;;;;;;;4996459;28;45664;-69
2021/12/20 03:32:59;;;;;;;;;46.00;34.33;;;;;;;;4995838;28;45383;-69
2021/12/20 03:35:25;;;;;;;;;44.67;33.33;;;;;;;;4994847;28;46081;-68
2021/12/20 03:37:50;;;;;;;;;40.00;30.25;;;;;;;;4996012;28;45472;-69
2021/12/20 03:40:15;;;;;;;;;45.67;37.67;;;;;;;;4995848;28;45422;-69
2021/12/20 03:42:43;;;;;;;;;37.00;31.33;;;;;;;;4996070;28;45424;-69
2021/12/20 03:45:09;;;;;;;;;43.50;30.00;;;;;;;;4994833;28;45460;-68
2021/12/20 03:47:34;;;;;;;;;33.50;28.50;;;;;;;;4995399;28;45313;-68
2021/12/20 03:49:59;;;;;;;;;40.33;28.67;;;;;;;;4996183;28;45699;-68
2021/12/20 03:52:25;;;;;;;;;34.00;25.00;;;;;;;;4994741;28;45403;-69
2021/12/20 03:54:50;;;;;;;;;38.75;27.75;;;;;;;;4995474;28;45435;-68
2021/12/20 03:57:15;;;;;;;;;38.00;30.00;;;;;;;;4996019;28;45297;-69
2021/12/20 03:59:40;;;;;;;;;50.00;29.67;;;;;;;;4993991;28;45567;-69
2021/12/20 04:02:06;;;;;;;;;34.67;31.33;;;;;;;;4995420;28;46036;-68
2021/12/20 04:04:31;;;;;;;;;42.25;30.25;;;;;;;;4994535;28;45932;-68
2021/12/20 04:06:57;;;;;;;;;36.67;30.33;;;;;;;;4995155;28;45377;-69
2021/12/20 04:09:22;;;;;;;;;36.00;32.00;;;;;;;;4996270;28;45475;-68
2021/12/20 04:11:47;;;;;;;;;38.67;29.00;;;;;;;;4995278;28;45379;-68
2021/12/20 04:14:12;;;;;;;;;43.00;33.33;;;;;;;;4994678;28;46043;-69
2021/12/20 04:16:37;;;;;;;;;38.33;31.33;;;;;;;;4995272;28;45256;-69
2021/12/20 04:19:03;;;;;;;;;39.00;31.00;;;;;;;;4995353;28;45264;-69
2021/12/20 04:21:28;;;;;;;;;47.25;34.50;;;;;;;;4995926;28;45580;-69
2021/12/20 04:23:53;;;;;;;;;34.00;29.33;;;;;;;;4994982;28;46010;-68
2021/12/20 04:26:19;;;;;;;;;33.33;26.33;;;;;;;;4994950;28;45312;-68
2021/12/20 04:28:44;;;;;;;;;37.33;27.33;;;;;;;;4994779;28;45322;-68
2021/12/20 04:31:09;;;;;;;;;25.75;23.00;;;;;;;;4995296;28;45784;-69
2021/12/20 04:33:35;;;;;;;;;26.33;22.67;;;;;;;;4995408;28;46200;-68
2021/12/20 04:36:00;;;;;;;;;26.67;21.00;;;;;;;;4994811;28;45479;-69
2021/12/20 04:38:27;;;;;;;;;37.00;26.33;;;;;;;;4994640;28;45478;-68
2021/12/20 04:40:53;;;;;;;;;28.50;22.25;;;;;;;;4994596;28;45806;-68
2021/12/20 04:43:18;;;;;;;;;26.00;19.75;;;;;;;;4994692;28;46083;-69
2021/12/20 04:45:44;;;;;;;;;30.67;20.33;;;;;;;;4995169;28;45302;-69
2021/12/20 04:48:09;;;;;;;;;27.00;23.67;;;;;;;;4995008;28;45427;-69
2021/12/20 04:50:34;;;;;;;;;37.00;25.00;;;;;;;;4993445;28;45430;-69
2021/12/20 04:53:00;;;;;;;;;36.00;27.75;;;;;;;;4994804;28;49653;-69
2021/12/20 04:55:26;;;;;;;;;32.75;26.50;;;;;;;;4994784;28;45395;-69
2021/12/20 04:57:52;;;;;;;;;29.25;15.50;;;;;;;;4994368;28;45585;-69
2021/12/20 05:00:19;;;;;;;;;34.50;26.00;;;;;;;;4995571;28;45484;-69
2021/12/20 05:02:44;;;;;;;;;31.75;24.25;;;;;;;;4994274;28;46426;-69
2021/12/20 05:05:10;;;;;;;;;31.00;24.00;;;;;;;;4994289;28;45486;-69
2021/12/20 05:07:37;;;;;;;;;34.50;27.25;;;;;;;;4994407;28;45385;-69
2021/12/20 05:10:02;;;;;;;;;34.00;24.75;;;;;;;;4994659;28;45360;-68
2021/12/20 05:12:28;;;;;;;;;30.75;23.00;;;;;;;;4994317;28;47724;-69
2021/12/20 05:14:53;;;;;;;;;37.25;22.00;;;;;;;;4994439;28;45336;-68
2021/12/20 05:17:19;;;;;;;;;36.50;27.25;;;;;;;;4994800;28;45449;-68
2021/12/20 05:19:44;;;;;;;;;36.75;27.00;;;;;;;;4994363;28;45477;-69
2021/12/20 05:22:10;;;;;;;;;36.00;22.75;;;;;;;;5009478;28;46389;-68
2021/12/20 05:24:36;;;;;;;;;26.50;24.00;;;;;;;;4994970;28;45741;-68
2021/12/20 05:27:01;;;;;;;;;39.50;26.25;;;;;;;;4993926;28;45819;-68
2021/12/20 05:29:26;;;;;;;;;32.00;22.00;;;;;;;;4994241;28;45290;-68
2021/12/20 05:31:52;;;;;;;;;32.33;19.67;;;;;;;;4994233;28;45995;-68
2021/12/20 05:34:18;;;;;;;;;25.25;20.00;;;;;;;;4993598;28;45395;-69
2021/12/20 05:36:43;;;;;;;;;26.75;23.50;;;;;;;;4993967;28;45494;-68
2021/12/20 05:39:08;;;;;;;;;34.00;23.67;;;;;;;;4994750;28;45429;-69
2021/12/20 05:41:33;;;;;;;;;34.00;24.33;;;;;;;;4993453;28;46341;-69
2021/12/20 05:43:59;;;;;;;;;20.33;17.67;;;;;;;;4993974;28;45456;-68
2021/12/20 05:46:24;;;;;;;;;30.67;27.67;;;;;;;;4994378;28;45561;-69
2021/12/20 05:48:49;;;;;;;;;28.67;22.00;;;;;;;;4994217;28;45404;-68
2021/12/20 05:51:14;;;;;;;;;41.33;24.33;;;;;;;;4994730;28;45892;-69
2021/12/20 05:53:39;;;;;;;;;25.33;20.67;;;;;;;;4993846;28;45399;-68
2021/12/20 05:56:05;;;;;;;;;33.67;24.00;;;;;;;;4993528;28;45441;-68
2021/12/20 05:58:30;;;;;;;;;35.00;23.67;;;;;;;;4993732;28;45718;-69
2021/12/20 06:00:55;;;;;;;;;26.33;22.67;;;;;;;;4993659;28;45459;-68
2021/12/20 06:03:20;;;;;;;;;25.50;22.00;;;;;;;;4994211;28;45369;-68
2021/12/20 06:05:46;;;;;;;;;29.00;21.00;;;;;;;;4994149;28;45738;-69
2021/12/20 06:08:11;;;;;;;;;26.33;18.33;;;;;;;;4993837;28;45530;-68
2021/12/20 06:10:37;;;;;;;;;31.50;24.00;;;;;;;;4993595;28;45382;-69
2021/12/20 06:13:03;;;;;;;;;27.00;20.00;;;;;;;;4993775;28;45329;-69
2021/12/20 06:15:28;;;;;;;;;28.00;19.25;;;;;;;;4994363;28;45338;-69
2021/12/20 06:17:53;;;;;;;;;24.67;18.33;;;;;;;;4997110;28;45612;-68
2021/12/20 06:20:19;;;;;;;;;25.00;20.75;;;;;;;;4996914;28;45977;-68
2021/12/20 06:22:44;;;;;;;;;30.33;15.00;;;;;;;;4997129;28;45394;-68
2021/12/20 06:25:09;;;;;;;;;19.00;15.00;;;;;;;;4996747;28;45313;-68
2021/12/20 06:27:34;;;;;;;;;32.75;23.25;;;;;;;;4997506;28;45392;-68
2021/12/20 06:30:00;;;;;;;;;22.25;19.25;;;;;;;;4995202;28;46296;-68
2021/12/20 06:32:25;;;;;;;;;24.00;18.00;;;;;;;;4996714;28;49732;-69
2021/12/20 06:34:50;;;;;;;;;27.00;21.33;;;;;;;;4996719;28;45380;-68
2021/12/20 06:37:15;;;;;;;;;25.33;19.00;;;;;;;;4996706;28;45279;-68
2021/12/20 06:39:41;;;;;;;;;27.67;17.33;;;;;;;;4996881;28;46158;-69
2021/12/20 06:42:06;;;;;;;;;22.33;19.00;;;;;;;;4997080;28;45337;-69
2021/12/20 06:44:31;;;;;;;;;23.00;20.75;;;;;;;;4996898;28;45344;-69
2021/12/20 06:46:56;;;;;;;;;24.67;21.67;;;;;;;;4996407;28;45360;-68
2021/12/20 06:49:22;;;;;;;;;17.67;17.33;;;;;;;;4996088;28;47149;-68
2021/12/20 06:51:48;;;;;;;;;25.75;19.25;;;;;;;;4995584;28;46069;-68
2021/12/20 06:54:14;;;;;;;;;27.00;19.00;;;;;;;;4996950;28;46745;-68
2021/12/20 06:56:40;;;;;;;;;31.00;27.25;;;;;;;;4996534;28;45505;-69
2021/12/20 06:59:05;;;;;;;;;20.75;19.00;;;;;;;;4996320;28;45892;-69
2021/12/20 07:01:30;;;;;;;;;25.33;18.67;;;;;;;;4996421;28;45502;-68
2021/12/20 07:03:56;;;;;;;;;27.33;16.33;;;;;;;;4996484;28;45443;-68
2021/12/20 07:06:21;;;;;;;;;24.75;18.50;;;;;;;;4996478;28;45467;-68
2021/12/20 07:08:46;;;;;;;;;31.33;23.33;;;;;;;;4996429;28;45461;-69
2021/12/20 07:11:11;;;;;;;;;26.00;20.67;;;;;;;;4996279;28;45550;-69
2021/12/20 07:13:38;;;;;;;;;26.67;17.33;;;;;;;;4996308;28;45499;-68
2021/12/20 07:16:03;;;;;;;;;25.00;18.50;;;;;;;;4996292;28;45427;-68
2021/12/20 07:18:28;;;;;;;;;33.25;26.75;;;;;;;;4995202;28;46206;-69
2021/12/20 07:20:53;;;;;;;;;21.33;17.67;;;;;;;;4993635;28;45513;-69
2021/12/20 07:23:18;;;;;;;;;34.00;20.33;;;;;;;;4996134;28;45417;-68
2021/12/20 07:25:44;;;;;;;;;24.33;20.33;;;;;;;;4996192;28;45367;-68
2021/12/20 07:28:09;;;;;;;;;22.50;19.50;;;;;;;;4994523;28;45486;-68
2021/12/20 07:30:35;;;;;;;;;27.00;22.75;;;;;;;;4996238;28;45329;-68
2021/12/20 07:33:01;;;;;;;;;34.75;20.25;;;;;;;;4995878;28;45289;-68
2021/12/20 07:35:27;;;;;;;;;29.50;23.75;;;;;;;;4995363;28;45426;-69
2021/12/20 07:37:54;;;;;;;;;30.75;20.00;;;;;;;;4995604;28;46401;-69
2021/12/20 07:40:20;;;;;;;;;27.00;19.25;;;;;;;;4995960;28;45404;-68
2021/12/20 07:42:45;;;;;;;;;24.25;16.75;;;;;;;;4996157;28;45379;-68
2021/12/20 07:45:10;;;;;;;;;31.00;22.33;;;;;;;;4996341;28;45724;-68
2021/12/20 07:47:36;;;;;;;;;24.50;20.50;;;;;;;;4986671;28;47081;-69
2021/12/20 07:50:01;;;;;;;;;20.67;14.33;;;;;;;;4987076;28;45459;-68
2021/12/20 07:52:26;;;;;;;;;31.67;22.67;;;;;;;;4995786;28;45445;-68
2021/12/20 07:54:51;;;;;;;;;29.33;18.67;;;;;;;;4995961;28;45368;-68
2021/12/20 07:57:16;;;;;;;;;21.00;18.00;;;;;;;;4996098;28;45921;-69
2021/12/20 07:59:42;;;;;;;;;24.00;17.67;;;;;;;;4995337;28;45461;-68
2021/12/20 08:02:07;;;;;;;;;26.00;19.33;;;;;;;;4995257;28;45399;-68
2021/12/20 08:04:32;;;;;;;;;30.75;25.00;;;;;;;;4994373;28;45491;-69
2021/12/20 08:06:58;;;;;;;;;23.33;17.67;;;;;;;;4995174;28;46292;-69
2021/12/20 08:09:23;;;;;;;;;24.33;17.00;;;;;;;;4995692;28;45612;-68
2021/12/20 08:11:48;;;;;;;;;28.00;19.33;;;;;;;;4995767;28;45468;-69
2021/12/20 08:14:13;;;;;;;;;26.00;22.00;;;;;;;;4995186;28;45453;-68
2021/12/20 08:16:39;;;;;;;;;25.67;16.67;;;;;;;;4995085;28;45746;-68
2021/12/20 08:19:04;;;;;;;;;28.00;18.00;;;;;;;;4992655;28;45488;-68
2021/12/20 08:21:29;;;;;;;;;21.33;18.00;;;;;;;;4995800;28;45554;-68
2021/12/20 08:23:54;;;;;;;;;39.00;25.33;;;;;;;;4995135;28;45449;-68
2021/12/20 08:26:20;;;;;;;;;27.67;21.00;;;;;;;;4995112;28;45585;-69
2021/12/20 08:28:45;;;;;;;;;33.50;17.75;;;;;;;;4994944;28;45290;-68
2021/12/20 08:31:10;;;;;;;;;25.00;20.67;;;;;;;;4995116;28;45301;-69
2021/12/20 08:33:36;;;;;;;;;34.33;19.67;;;;;;;;4994422;28;45389;-68
2021/12/20 08:36:03;;;;;;;;;32.00;25.25;;;;;;;;4994699;28;46531;-68
2021/12/20 08:38:28;;;;;;;;;26.50;22.25;;;;;;;;4994368;28;45843;-68
2021/12/20 08:40:53;;;;;;;;;32.00;19.67;;;;;;;;4994879;28;47182;-68
2021/12/20 08:43:19;;;;;;;;;26.00;20.50;;;;;;;;4994879;28;45574;-68
2021/12/20 08:45:45;;;;;;;;;25.00;17.25;;;;;;;;4995080;28;45515;-68
2021/12/20 08:48:10;;;;;;;;;36.50;25.25;;;;;;;;4994530;28;45782;-69
2021/12/20 08:50:35;;;;;;;;;36.67;23.67;;;;;;;;4994848;28;45316;-69
2021/12/20 08:53:00;;;;;;;;;32.67;25.33;;;;;;;;4994630;28;45856;-69
2021/12/20 08:55:26;;;;;;;;;29.25;22.00;;;;;;;;4994765;28;45458;-69
2021/12/20 08:57:51;;;;;;;;;18.67;14.00;;;;;;;;4994971;28;45498;-69
2021/12/20 09:00:21;;;;;;;;;33.00;26.50;;;;;;;;4995167;28;45418;-69
2021/12/20 09:02:47;;;;;;;;;27.00;22.00;;;;;;;;4994153;28;45364;-69
2021/12/20 09:05:12;;;;;;;;;35.00;26.25;;;;;;;;4993429;28;45474;-69
2021/12/20 09:07:40;;;;;;;;;31.67;22.33;;;;;;;;4994464;28;45504;-69
2021/12/20 09:10:06;;;;;;;;;30.25;24.25;;;;;;;;4983631;28;45328;-69
2021/12/20 09:12:31;;;;;;;;;27.25;20.25;;;;;;;;4995044;28;45779;-69
2021/12/20 09:14:56;;;;;;;;;28.33;21.67;;;;;;;;4994751;28;46227;-68
2021/12/20 09:17:21;;;;;;;;;27.33;18.67;;;;;;;;4993801;28;45389;-69
2021/12/20 09:19:47;;;;;;;;;30.00;22.00;;;;;;;;4994529;28;45395;-68
2021/12/20 09:22:12;;;;;;;;;25.33;19.00;;;;;;;;4994330;28;45370;-68
2021/12/20 09:24:38;;;;;;;;;21.00;18.33;;;;;;;;4994548;28;45847;-69
2021/12/20 09:27:04;;;;;;;;;22.00;19.00;;;;;;;;4994571;28;45765;-68
2021/12/20 09:29:29;;;;;;;;;26.25;18.25;;;;;;;;4994022;28;45306;-68
2021/12/20 09:31:55;;;;;;;;;26.25;21.25;;;;;;;;4994282;28;45461;-68
2021/12/20 09:34:20;;;;;;;;;31.00;22.75;;;;;;;;4993685;28;46095;-68
2021/12/20 09:36:45;;;;;;;;;25.67;20.33;;;;;;;;4994240;28;45410;-69
2021/12/20 09:39:11;;;;;;;;;21.33;19.67;;;;;;;;4994823;28;45434;-68
2021/12/20 09:44:05;;;;;;;;;29.00;20.25;;;;;;;;4993975;28;45376;-68
2021/12/20 09:46:31;;;;;;;;;27.00;22.75;;;;;;;;4993605;28;45770;-68
2021/12/20 09:48:57;;;;;;;;;30.50;22.75;;;;;;;;4994160;28;45818;-68
2021/12/20 09:51:23;;;;;;;;;24.75;18.25;;;;;;;;4997222;28;45418;-68
2021/12/20 09:53:48;;;;;;;;;23.25;19.50;;;;;;;;5012358;28;46202;-68
2021/12/20 09:56:14;;;;;;;;;24.67;17.33;;;;;;;;4997356;28;45531;-69
2021/12/20 09:58:40;;;;;;;;;27.75;22.75;;;;;;;;4997400;28;45321;-69
2021/12/20 10:01:06;;;;;;;;;24.50;17.50;;;;;;;;4997261;28;45337;-68
2021/12/20 10:03:32;;;;;;;;;18.75;18.75;;;;;;;;4997409;28;46248;-68
2021/12/20 10:05:57;;;;;;;;;29.75;18.50;;;;;;;;4995693;28;45710;-69
2021/12/20 10:08:32;;;;;;;;;22.00;14.50;;;;;;;;4997185;28;45551;-69
2021/12/20 10:10:59;;;;;;;;;23.50;16.50;;;;;;;;4997025;28;45754;-68
2021/12/20 10:13:26;;;;;;;;;13.00;9.50;;;;;;;;4997049;28;46236;-69
2021/12/20 10:15:52;;;;;;;;;18.00;14.75;;;;;;;;4996800;28;45388;-69
2021/12/20 10:18:17;;;;;;;;;18.00;14.50;;;;;;;;4997727;28;45437;-69
2021/12/20 10:20:48;;;;;;;;;18.00;14.00;;;;;;;;4997225;28;47754;-68
2021/12/20 10:23:17;;;;;;;;;18.75;13.75;;;;;;;;4997156;28;45729;-69
2021/12/20 10:25:43;;;;;;;;;20.00;12.00;;;;;;;;4996980;28;45864;-69
2021/12/20 10:28:10;;;;;;;;;18.25;14.50;;;;;;;;4997109;28;45329;-69
2021/12/20 10:30:37;;;;;;;;;17.75;11.50;;;;;;;;4997390;28;45371;-69
2021/12/20 10:33:04;;;;;;;;;13.50;9.25;;;;;;;;4996933;28;46106;-69
2021/12/20 10:35:29;;;;;;;;;15.75;10.00;;;;;;;;4996162;28;45754;-69
2021/12/20 10:37:56;;;;;;;;;17.33;14.67;;;;;;;;4997417;28;45471;-68
2021/12/20 10:40:21;;;;;;;;;17.50;13.50;;;;;;;;4996524;28;45435;-68
2021/12/20 10:42:46;;;;;;;;;15.33;11.67;;;;;;;;4996723;28;45372;-68
2021/12/20 10:45:17;;;;;;;;;10.00;5.67;;;;;;;;4996668;28;45478;-68
2021/12/20 10:47:43;;;;;;;;;14.50;11.75;;;;;;;;4995387;28;45487;-68
2021/12/20 10:50:23;;;;;;;;;10.00;6.75;;;;;;;;4996463;28;45443;-68
2021/12/20 10:52:48;;;;;;;;;13.00;10.00;;;;;;;;4996596;28;46105;-68
2021/12/20 10:55:33;;;;;;;;;9.75;9.50;;;;;;;;5012021;28;45786;-69
2021/12/20 10:58:14;;;;;;;;;19.25;11.75;;;;;;;;4996613;28;45461;-69
2021/12/20 11:00:40;;;;;;;;;12.75;8.50;;;;;;;;4993125;28;45437;-69
2021/12/20 11:03:23;;;;;;;;;14.67;10.00;;;;;;;;4995723;28;46311;-69
2021/12/20 11:11:17;;;;;;;;;16.75;13.50;;;;;;;;4996334;28;45337;-69
2021/12/20 11:13:43;;;;;;;;;18.33;11.67;;;;;;;;4995896;28;45556;-68
2021/12/20 11:16:27;;;;;;;;;13.33;9.00;;;;;;;;4996143;28;45355;-68
2021/12/20 11:19:16;;;;;;;;;16.25;10.25;;;;;;;;4995830;28;45360;-68
2021/12/20 11:21:49;;;;;;;;;14.75;11.00;;;;;;;;4992751;28;45396;-68
2021/12/20 11:24:16;;;;;;;;;10.50;6.75;;;;;;;;4996223;28;46906;-69
2021/12/20 11:26:41;;;;;;;;;16.00;13.25;;;;;;;;4996105;28;45965;-68
2021/12/20 11:29:07;;;;;;;;;17.33;9.33;;;;;;;;4995707;28;45311;-69
2021/12/20 11:31:32;;;;;;;;;29.67;18.67;;;;;;;;4995993;28;45328;-69
2021/12/20 11:33:59;;;;;;;;;18.00;14.75;;;;;;;;4995810;28;47021;-69
2021/12/20 11:36:25;;;;;;;;;18.50;17.75;;;;;;;;4996429;28;45275;-69
2021/12/20 11:38:51;;;;;;;;;20.25;15.25;;;;;;;;4995737;28;45491;-68
2021/12/20 11:41:16;;;;;;;;;17.50;14.00;;;;;;;;4995727;28;45510;-69
2021/12/20 11:43:42;;;;;;;;;14.00;12.25;;;;;;;;4995540;28;45968;-68
2021/12/20 11:46:07;;;;;;;;;20.25;14.50;;;;;;;;4995860;28;45393;-69
2021/12/20 11:48:33;;;;;;;;;17.25;14.00;;;;;;;;4991017;28;45439;-69
2021/12/20 11:50:59;;;;;;;;;23.50;16.00;;;;;;;;4995868;28;45661;-69
2021/12/20 11:53:24;;;;;;;;;25.00;19.33;;;;;;;;4995234;28;46345;-69
2021/12/20 11:55:53;;;;;;;;;29.67;22.67;;;;;;;;4995355;28;45433;-68
2021/12/20 11:58:20;;;;;;;;;27.25;17.00;;;;;;;;4995231;28;45547;-69
2021/12/20 12:00:52;;;;;;;;;23.00;21.25;;;;;;;;4996044;28;45332;-69
2021/12/20 12:03:18;;;;;;;;;20.25;15.75;;;;;;;;4994140;28;45431;-69
2021/12/20 12:05:46;;;;;;;;;21.00;18.25;;;;;;;;4995253;28;45373;-69
2021/12/20 12:08:28;;;;;;;;;17.50;14.25;;;;;;;;4995369;28;45496;-68
2021/12/20 12:11:09;;;;;;;;;19.75;15.00;;;;;;;;4994861;28;45489;-68
2021/12/20 12:13:44;;;;;;;;;24.25;15.75;;;;;;;;4994495;28;46121;-69
2021/12/20 12:16:27;;;;;;;;;21.75;17.00;;;;;;;;4980044;28;45893;-68
2021/12/20 12:18:53;;;;;;;;;24.25;14.75;;;;;;;;4994922;28;45354;-68
2021/12/20 12:21:33;;;;;;;;;18.25;14.00;;;;;;;;4991267;28;45472;-68
2021/12/20 12:24:02;;;;;;;;;22.50;12.75;;;;;;;;4994874;28;45392;-69
2021/12/20 12:26:29;;;;;;;;;19.25;18.00;;;;;;;;4995156;28;45614;-69
2021/12/20 12:28:56;;;;;;;;;18.00;13.75;;;;;;;;4994911;28;45468;-68
2021/12/20 12:31:21;;;;;;;;;17.25;12.00;;;;;;;;4995515;28;45844;-69
2021/12/20 12:33:47;;;;;;;;;13.75;11.75;;;;;;;;4994023;28;46046;-68
2021/12/20 12:36:23;;;;;;;;;18.67;16.33;;;;;;;;4995483;28;45478;-69
2021/12/20 12:38:50;;;;;;;;;22.50;16.75;;;;;;;;4994858;28;45428;-68
2021/12/20 12:41:19;;;;;;;;;14.75;11.00;;;;;;;;4994453;28;45469;-69
2021/12/20 12:43:44;;;;;;;;;12.25;10.50;;;;;;;;4994902;28;46192;-69
2021/12/20 12:46:10;;;;;;;;;16.50;11.50;;;;;;;;4995478;28;45372;-69
2021/12/20 12:48:39;;;;;;;;;17.50;14.00;;;;;;;;4994415;28;45914;-68
2021/12/20 12:51:04;;;;;;;;;14.25;11.00;;;;;;;;4995068;28;45661;-69
2021/12/20 12:53:43;;;;;;;;;15.00;11.25;;;;;;;;4994646;28;46105;-68
2021/12/20 12:56:23;;;;;;;;;18.50;13.50;;;;;;;;4994005;28;45954;-69
2021/12/20 12:59:07;;;;;;;;;11.00;7.75;;;;;;;;4994566;28;45374;-67
2021/12/20 13:01:32;;;;;;;;;15.75;10.25;;;;;;;;4995043;28;45456;-68
2021/12/20 13:03:57;;;;;;;;;15.75;11.75;;;;;;;;4994554;28;45483;-68
2021/12/20 13:06:25;;;;;;;;;13.67;9.00;;;;;;;;4994997;28;45373;-68
2021/12/20 13:08:53;;;;;;;;;10.50;7.50;;;;;;;;4994057;28;45417;-68
2021/12/20 13:11:20;;;;;;;;;17.25;10.25;;;;;;;;4994563;28;45503;-68
2021/12/20 13:13:53;;;;;;;;;15.50;10.75;;;;;;;;4994684;28;46044;-68
2021/12/20 13:16:23;;;;;;;;;19.25;13.75;;;;;;;;4994628;28;46072;-68
2021/12/20 13:18:51;;;;;;;;;11.75;9.75;;;;;;;;4994108;28;45339;-68
2021/12/20 13:21:20;;;;;;;;;9.75;7.00;;;;;;;;4992948;28;45306;-68
2021/12/20 13:23:48;;;;;;;;;14.50;11.00;;;;;;;;4994537;28;46280;-68
2021/12/20 13:26:17;;;;;;;;;13.75;13.25;;;;;;;;4997714;28;47588;-68
2021/12/20 13:28:44;;;;;;;;;19.00;11.00;;;;;;;;4997838;28;45312;-68
2021/12/20 13:31:10;;;;;;;;;11.00;8.75;;;;;;;;4997956;28;45458;-68
2021/12/20 13:33:40;;;;;;;;;17.00;12.75;;;;;;;;4998484;28;46060;-68
2021/12/20 13:36:07;;;;;;;;;15.25;12.50;;;;;;;;4997757;28;45245;-68
2021/12/20 13:38:34;;;;;;;;;19.75;14.50;;;;;;;;4997170;28;45622;-68
2021/12/20 13:41:01;;;;;;;;;11.25;11.25;;;;;;;;4997041;28;45586;-68
2021/12/20 13:43:33;;;;;;;;;15.25;12.50;;;;;;;;4997381;28;45518;-68
2021/12/20 13:46:02;;;;;;;;;16.25;15.00;;;;;;;;4997516;28;45412;-69
2021/12/20 13:48:27;;;;;;;;;13.25;12.25;;;;;;;;4998206;28;45298;-68
2021/12/20 13:50:53;;;;;;;;;15.75;13.00;;;;;;;;4997435;28;45407;-68
2021/12/20 13:53:26;;;;;;;;;16.50;15.00;;;;;;;;4996869;28;45266;-68
2021/12/20 13:55:56;;;;;;;;;17.25;13.25;;;;;;;;4997350;28;45448;-68
2021/12/20 13:58:21;;;;;;;;;13.25;10.75;;;;;;;;4997538;28;45423;-68
2021/12/20 14:00:47;;;;;;;;;16.25;12.75;;;;;;;;4997541;28;45420;-68
2021/12/20 14:03:12;;;;;;;;;18.25;13.50;;;;;;;;4997614;28;46066;-68
2021/12/20 14:05:39;;;;;;;;;13.67;12.00;;;;;;;;4997087;28;45365;-68
2021/12/20 14:08:13;;;;;;;;;8.25;7.00;;;;;;;;4996816;28;45388;-68
2021/12/20 14:10:39;;;;;;;;;12.00;10.00;;;;;;;;4996239;28;45297;-68
2021/12/20 14:13:06;;;;;;;;;18.50;11.25;;;;;;;;4981598;28;46521;-68
2021/12/20 14:15:33;;;;;;;;;13.75;10.75;;;;;;;;4997611;28;45438;-68
2021/12/20 14:18:03;;;;;;;;;12.75;11.00;;;;;;;;4997104;28;45551;-68
2021/12/20 14:20:37;;;;;;;;;15.25;12.00;;;;;;;;4997057;28;45514;-68
2021/12/20 14:23:03;;;;;;;;;12.25;10.00;;;;;;;;4996182;28;46048;-68
2021/12/20 14:25:29;;;;;;;;;11.75;10.25;;;;;;;;4996849;28;45402;-68
2021/12/20 14:27:58;;;;;;;;;11.25;10.00;;;;;;;;4997121;28;45388;-68
2021/12/20 14:30:24;;;;;;;;;16.00;15.00;;;;;;;;4997709;28;45336;-68
2021/12/20 14:32:49;;;;;;;;;19.25;15.25;;;;;;;;4996725;28;46175;-68
2021/12/20 14:35:34;;;;;;;;;11.25;9.00;;;;;;;;4996513;28;45399;-68